createdAt,value
2018-08-08T00:00:28.136Z,99894.72
2018-08-08T00:02:55.588Z,99899.12
2018-08-08T00:05:22.889Z,99898.11
2018-08-08T00:07:50.254Z,99895.03
2018-08-08T00:10:17.632Z,99896.40
2018-08-08T00:12:45.581Z,99893.53
2018-08-08T00:15:13.452Z,99890.77
2018-08-08T00:17:42.356Z,99888.94
2018-08-08T00:20:09.959Z,99894.54
2018-08-08T00:22:37.576Z,99884.30
2018-08-08T00:25:06.346Z,99884.61
2018-08-08T00:27:33.642Z,99881.55
2018-08-08T00:30:00.947Z,99880.88
2018-08-08T00:32:28.248Z,99879.13
2018-08-08T00:34:56.224Z,99875.77
2018-08-08T00:37:23.558Z,99876.38
2018-08-08T00:39:50.819Z,99876.82
2018-08-08T00:42:18.216Z,99885.37
2018-08-08T00:44:45.495Z,99885.44
2018-08-08T00:47:12.762Z,99888.95
2018-08-08T00:49:40.039Z,99882.75
2018-08-08T00:52:07.647Z,99878.53
2018-08-08T00:54:35.284Z,99870.44
2018-08-08T00:57:02.629Z,99874.77
2018-08-08T00:59:29.951Z,99878.75
2018-08-08T01:01:57.203Z,99885.13
2018-08-08T01:04:25.111Z,99889.83
2018-08-08T01:06:52.385Z,99886.09
2018-08-08T01:09:19.707Z,99882.36
2018-08-08T01:11:46.957Z,99889.99
2018-08-08T01:14:14.311Z,99893.06
2018-08-08T01:16:41.574Z,99893.72
2018-08-08T01:19:08.911Z,99894.11
2018-08-08T01:21:36.171Z,99892.96
2018-08-08T01:24:04.115Z,99885.01
2018-08-08T01:26:31.421Z,99893.48
2018-08-08T01:28:58.762Z,99896.80
2018-08-08T01:31:27.192Z,99899.48
2018-08-08T01:33:54.479Z,99900.82
2018-08-08T01:36:22.621Z,99899.06
2018-08-08T01:38:49.883Z,99895.74
2018-08-08T01:41:17.252Z,99890.47
2018-08-08T01:43:44.626Z,99892.64
2018-08-08T01:46:11.948Z,99886.30
2018-08-08T01:48:39.398Z,99891.86
2018-08-08T01:51:06.700Z,99886.87
2018-08-08T01:53:34.030Z,99883.23
2018-08-08T01:56:01.479Z,99887.59
2018-08-08T01:58:28.772Z,99884.71
2018-08-08T02:00:56.122Z,99883.23
2018-08-08T02:03:23.546Z,99884.32
2018-08-08T02:05:52.191Z,99880.48
2018-08-08T02:08:19.435Z,99878.95
2018-08-08T02:10:46.768Z,99880.95
2018-08-08T02:13:14.032Z,99888.09
2018-08-08T02:15:42.058Z,99892.41
2018-08-08T02:18:09.475Z,99888.39
2018-08-08T02:20:36.937Z,99894.05
2018-08-08T02:23:04.227Z,99892.70
2018-08-08T02:25:31.511Z,99891.07
2018-08-08T02:27:58.900Z,99891.30
2018-08-08T02:30:26.154Z,99885.75
2018-08-08T02:32:54.314Z,99882.89
2018-08-08T02:35:22.234Z,99880.88
2018-08-08T02:37:49.889Z,99875.55
2018-08-08T02:40:17.236Z,99882.11
2018-08-08T02:42:44.641Z,99881.20
2018-08-08T02:45:15.524Z,99879.39
2018-08-08T02:47:43.600Z,99876.02
2018-08-08T02:50:12.830Z,99882.97
2018-08-08T02:52:41.007Z,99876.27
2018-08-08T02:55:10.142Z,99882.91
2018-08-08T02:57:37.858Z,99886.55
2018-08-08T03:00:06.209Z,99893.69
2018-08-08T03:02:33.516Z,99891.34
2018-08-08T03:05:00.787Z,99900.98
2018-08-08T03:07:28.062Z,99894.31
2018-08-08T03:09:55.345Z,99894.75
2018-08-08T03:12:22.630Z,99889.25
2018-08-08T03:14:49.990Z,99883.62
2018-08-08T03:17:17.279Z,99887.45
2018-08-08T03:19:44.604Z,99892.45
2018-08-08T03:22:11.862Z,99893.75
2018-08-08T03:24:39.143Z,99901.07
2018-08-08T03:27:06.977Z,99898.33
2018-08-08T03:29:34.272Z,99905.38
2018-08-08T03:32:01.553Z,99899.16
2018-08-08T03:34:28.855Z,99895.50
2018-08-08T03:36:56.143Z,99895.25
2018-08-08T03:39:23.420Z,99901.36
2018-08-08T03:41:50.671Z,99908.27
2018-08-08T03:44:18.824Z,99907.55
2018-08-08T03:46:46.121Z,99907.49
2018-08-08T03:49:13.502Z,99908.20
2018-08-08T03:51:40.790Z,99910.43
2018-08-08T03:54:08.265Z,99901.98
2018-08-08T03:56:35.848Z,99899.50
2018-08-08T03:59:03.252Z,99899.39
2018-08-08T04:01:30.561Z,99902.05
2018-08-08T04:03:57.881Z,99900.50
2018-08-08T04:06:25.189Z,99898.42
2018-08-08T04:08:53.048Z,99896.84
2018-08-08T04:11:20.323Z,99898.78
2018-08-08T04:13:47.599Z,99897.04
2018-08-08T04:16:14.863Z,99900.24
2018-08-08T04:18:42.195Z,99908.69
2018-08-08T04:21:09.567Z,99911.19
2018-08-08T04:23:36.917Z,99916.07
2018-08-08T04:26:04.573Z,99922.70
2018-08-08T04:28:32.827Z,99926.73
2018-08-08T04:31:00.122Z,99929.20
2018-08-08T04:33:27.373Z,99930.17
2018-08-08T04:35:54.651Z,99936.17
2018-08-08T04:38:22.680Z,99943.61
2018-08-08T04:40:49.951Z,99940.63
2018-08-08T04:43:17.346Z,99942.02
2018-08-08T04:45:44.714Z,99939.86
2018-08-08T04:48:12.048Z,99946.32
2018-08-08T04:50:40.030Z,99952.55
2018-08-08T04:53:08.320Z,99954.09
2018-08-08T04:55:36.233Z,99954.31
2018-08-08T04:58:03.534Z,99953.88
2018-08-08T05:00:30.802Z,99953.80
2018-08-08T05:02:58.067Z,99961.61
2018-08-08T05:05:25.462Z,99966.69
2018-08-08T05:07:52.763Z,99966.42
2018-08-08T05:10:20.026Z,99967.73
2018-08-08T05:12:47.271Z,99973.86
2018-08-08T05:15:17.014Z,99976.38
2018-08-08T05:17:45.289Z,99983.50
2018-08-08T05:20:13.669Z,99985.48
2018-08-08T05:22:41.120Z,99977.14
2018-08-08T05:25:08.719Z,99993.95
2018-08-08T05:27:35.994Z,100012.12
2018-08-08T05:30:07.499Z,100033.29
2018-08-08T05:32:34.779Z,100041.59
2018-08-08T05:35:02.088Z,100028.38
2018-08-08T05:37:29.336Z,100027.41
2018-08-08T05:39:59.144Z,100038.86
2018-08-08T05:42:26.672Z,100036.81
2018-08-08T05:44:53.961Z,100039.22
2018-08-08T05:47:21.267Z,100037.87
2018-08-08T05:49:48.763Z,100037.55
2018-08-08T05:52:16.022Z,100046.30
2018-08-08T05:54:43.296Z,100045.31
2018-08-08T05:57:10.563Z,100030.48
2018-08-08T05:59:38.900Z,100038.89
2018-08-08T06:02:06.317Z,100043.63
2018-08-08T06:04:33.617Z,100038.41
2018-08-08T06:07:00.980Z,100044.47
2018-08-08T06:09:28.286Z,100044.98
2018-08-08T06:11:55.565Z,100051.88
2018-08-08T06:14:22.875Z,100051.58
2018-08-08T06:16:50.258Z,100053.09
2018-08-08T06:19:17.600Z,100055.48
2018-08-08T06:21:45.056Z,100059.86
2018-08-08T06:24:12.355Z,100061.59
2018-08-08T06:26:40.273Z,100051.14
2018-08-08T06:29:07.669Z,100045.41
2018-08-08T06:31:34.979Z,100048.47
2018-08-08T06:34:02.260Z,100052.51
2018-08-08T06:36:29.565Z,100056.25
2018-08-08T06:38:57.069Z,100046.98
2018-08-08T06:41:24.545Z,100036.70
2018-08-08T06:43:52.134Z,100043.80
2018-08-08T06:46:19.256Z,100041.27
2018-08-08T06:48:46.511Z,100036.91
2018-08-08T06:51:13.797Z,100035.41
2018-08-08T06:53:41.162Z,100038.94
2018-08-08T06:56:08.468Z,100050.59
2018-08-08T06:58:35.735Z,100058.00
2018-08-08T07:01:03.109Z,100094.66
2018-08-08T07:03:30.488Z,100111.36
2018-08-08T07:05:57.791Z,100113.20
2018-08-08T07:08:25.093Z,100118.23
2018-08-08T07:10:52.626Z,100138.33
2018-08-08T07:13:20.124Z,100128.72
2018-08-08T07:15:47.518Z,100146.81
2018-08-08T07:18:14.810Z,100152.70
2018-08-08T07:20:42.211Z,100157.94
2018-08-08T07:23:09.549Z,100155.08
2018-08-08T07:25:36.856Z,100165.55
2018-08-08T07:28:04.159Z,100151.18
2018-08-08T07:30:31.580Z,100153.52
2018-08-08T07:32:58.865Z,100154.53
2018-08-08T07:35:26.356Z,100159.61
2018-08-08T07:37:53.680Z,100155.55
2018-08-08T07:40:20.970Z,100147.83
2018-08-08T07:42:48.350Z,100148.84
2018-08-08T07:45:18.777Z,100158.78
2018-08-08T07:47:46.042Z,100144.80
2018-08-08T07:50:13.818Z,100145.78
2018-08-08T07:52:41.670Z,100137.35
2018-08-08T07:55:10.368Z,100126.50
2018-08-08T07:57:37.658Z,100123.63
2018-08-08T08:00:23.075Z,100133.62
2018-08-08T08:02:51.289Z,100146.11
2018-08-08T08:05:18.855Z,100141.53
2018-08-08T08:07:46.819Z,100145.56
2018-08-08T08:10:14.857Z,100143.04
2018-08-08T08:12:42.169Z,100151.84
2018-08-08T08:15:11.054Z,100148.45
2018-08-08T08:17:38.721Z,100154.17
2018-08-08T08:20:09.178Z,100160.61
2018-08-08T08:22:36.736Z,100157.25
2018-08-08T08:25:04.932Z,100157.91
2018-08-08T08:27:32.354Z,100148.44
2018-08-08T08:30:00.794Z,100135.09
2018-08-08T08:32:28.201Z,100134.27
2018-08-08T08:34:55.767Z,100135.30
2018-08-08T08:37:23.076Z,100130.55
2018-08-08T08:39:50.464Z,100124.59
2018-08-08T08:42:17.744Z,100118.86
2018-08-08T08:44:45.105Z,100122.07
2018-08-08T08:47:12.584Z,100132.41
2018-08-08T08:49:39.858Z,100126.14
2018-08-08T08:52:07.162Z,100120.74
2018-08-08T08:54:34.397Z,100122.61
2018-08-08T08:57:01.634Z,100119.39
2018-08-08T08:59:29.002Z,100115.16
2018-08-08T09:01:57.265Z,100110.22
2018-08-08T09:04:24.537Z,100104.14
2018-08-08T09:06:51.801Z,100107.67
2018-08-08T09:09:19.180Z,100103.12
2018-08-08T09:11:46.489Z,100097.39
2018-08-08T09:14:13.773Z,100104.16
2018-08-08T09:16:41.211Z,100095.36
2018-08-08T09:19:08.484Z,100095.22
2018-08-08T09:21:36.324Z,100094.39
2018-08-08T09:24:03.662Z,100092.34
2018-08-08T09:26:31.015Z,100087.08
2018-08-08T09:28:58.401Z,100096.64
2018-08-08T09:31:25.761Z,100098.56
2018-08-08T09:33:53.044Z,100114.43
2018-08-08T09:36:20.336Z,100104.52
2018-08-08T09:38:47.684Z,100109.62
2018-08-08T09:41:14.967Z,100103.42
2018-08-08T09:43:42.313Z,100100.86
2018-08-08T09:46:09.739Z,100103.17
2018-08-08T09:48:37.103Z,100094.18
2018-08-08T09:51:05.134Z,100091.60
2018-08-08T09:53:32.499Z,100082.59
2018-08-08T09:55:59.794Z,100083.64
2018-08-08T09:58:27.169Z,100080.28
2018-08-08T10:01:00.225Z,100077.42
2018-08-08T10:03:45.287Z,100070.66
2018-08-08T10:06:12.524Z,100071.56
2018-08-08T10:08:39.818Z,100066.55
2018-08-08T10:11:07.808Z,100077.10
2018-08-08T10:13:35.121Z,100085.03
2018-08-08T10:16:02.602Z,100097.80
2018-08-08T10:18:29.893Z,100110.00
2018-08-08T10:20:57.173Z,100114.55
2018-08-08T10:23:24.546Z,100113.30
2018-08-08T10:25:51.820Z,100121.67
2018-08-08T10:28:19.156Z,100125.36
2018-08-08T10:30:46.429Z,100126.32
2018-08-08T10:33:13.676Z,100128.28
2018-08-08T10:35:41.992Z,100137.77
2018-08-08T10:38:09.301Z,100140.27
2018-08-08T10:40:36.563Z,100140.94
2018-08-08T10:43:03.921Z,100146.84
2018-08-08T10:45:31.348Z,100148.75
2018-08-08T10:47:58.627Z,100149.78
2018-08-08T10:50:25.904Z,100155.00
2018-08-08T10:52:53.287Z,100163.02
2018-08-08T10:55:20.543Z,100158.85
2018-08-08T10:57:47.965Z,100169.44
2018-08-08T11:00:15.277Z,100161.21
2018-08-08T11:02:42.608Z,100169.27
2018-08-08T11:05:09.923Z,100168.05
2018-08-08T11:07:37.208Z,100159.13
2018-08-08T11:10:04.907Z,100163.41
2018-08-08T11:12:32.229Z,100166.06
2018-08-08T11:14:59.578Z,100167.05
2018-08-08T11:17:26.897Z,100161.62
2018-08-08T11:19:54.908Z,100176.58
2018-08-08T11:22:22.175Z,100178.83
2018-08-08T11:24:49.648Z,100179.70
2018-08-08T11:27:17.196Z,100171.63
2018-08-08T11:29:45.067Z,100178.68
2018-08-08T11:32:12.329Z,100193.29
2018-08-08T11:34:39.736Z,100183.59
2018-08-08T11:37:07.095Z,100187.56
2018-08-08T11:39:34.495Z,100187.69
2018-08-08T11:42:02.738Z,100184.39
2018-08-08T11:44:30.053Z,100186.23
2018-08-08T11:46:57.362Z,100194.72
2018-08-08T11:49:24.612Z,100202.91
2018-08-08T11:51:51.901Z,100207.11
2018-08-08T11:54:19.187Z,100211.41
2018-08-08T11:56:46.646Z,100242.53
2018-08-08T11:59:13.984Z,100228.03
2018-08-08T12:01:41.191Z,100236.80
2018-08-08T12:04:08.472Z,100234.84
2018-08-08T12:06:35.759Z,100242.32
2018-08-08T12:09:05.544Z,100245.09
2018-08-08T12:11:32.820Z,100234.63
2018-08-08T12:14:00.122Z,100245.63
2018-08-08T12:16:27.460Z,100235.41
2018-08-08T12:18:54.786Z,100244.58
2018-08-08T12:21:22.072Z,100261.50
2018-08-08T12:23:49.452Z,100258.89
2018-08-08T12:26:16.775Z,100238.94
2018-08-08T12:28:44.070Z,100244.98
2018-08-08T12:31:11.364Z,100247.95
2018-08-08T12:33:38.873Z,100255.16
2018-08-08T12:36:08.264Z,100256.59
2018-08-08T12:38:36.178Z,100252.41
2018-08-08T12:41:03.463Z,100261.36
2018-08-08T12:43:30.725Z,100245.46
2018-08-08T12:45:58.014Z,100257.30
2018-08-08T12:48:25.487Z,100258.95
2018-08-08T12:50:52.767Z,100259.70
2018-08-08T12:53:20.046Z,100263.87
2018-08-08T12:55:47.365Z,100272.22
2018-08-08T12:58:14.665Z,100272.77
2018-08-08T13:00:41.973Z,100271.78
2018-08-08T13:03:09.563Z,100263.14
2018-08-08T13:05:36.849Z,100273.63
2018-08-08T13:08:04.132Z,100272.53
2018-08-08T13:10:31.466Z,100272.07
2018-08-08T13:12:58.793Z,100269.27
2018-08-08T13:15:26.517Z,100275.77
2018-08-08T13:17:53.797Z,100288.06
2018-08-08T13:20:21.268Z,100274.18
2018-08-08T13:22:48.650Z,100272.34
2018-08-08T13:25:15.961Z,100270.20
2018-08-08T13:27:43.277Z,100270.89
2018-08-08T13:30:10.554Z,100266.31
2018-08-08T13:32:37.847Z,100277.68
2018-08-08T13:35:05.658Z,100264.17
2018-08-08T13:37:33.030Z,100264.98
2018-08-08T13:40:00.328Z,100262.88
2018-08-08T13:42:27.600Z,100260.36
2018-08-08T13:44:54.972Z,100258.44
2018-08-08T13:47:22.264Z,100278.50
2018-08-08T13:49:49.565Z,100261.70
2018-08-08T13:52:16.967Z,100271.68
2018-08-08T13:54:44.264Z,100273.59
2018-08-08T13:57:11.580Z,100282.53
2018-08-08T13:59:39.650Z,100268.23
2018-08-08T14:02:07.028Z,100273.08
2018-08-08T14:04:34.306Z,100292.77
2018-08-08T14:07:01.587Z,100289.82
2018-08-08T14:09:28.888Z,100286.88
2018-08-08T14:11:56.252Z,100302.76
2018-08-08T14:14:23.619Z,100291.30
2018-08-08T14:16:51.028Z,100285.66
2018-08-08T14:19:18.383Z,100284.67
2018-08-08T14:21:45.669Z,100289.41
2018-08-08T14:24:12.997Z,100307.00
2018-08-08T14:26:41.410Z,100289.69
2018-08-08T14:29:08.690Z,100310.99
2018-08-08T14:31:36.119Z,100306.20
2018-08-08T14:34:03.512Z,100292.39
2018-08-08T14:36:31.014Z,100300.75
2018-08-08T14:38:58.408Z,100291.73
2018-08-08T14:41:26.336Z,100289.97
2018-08-08T14:43:54.215Z,100288.19
2018-08-08T14:46:22.184Z,100310.30
2018-08-08T14:48:49.519Z,100313.58
2018-08-08T14:51:16.809Z,100303.23
2018-08-08T14:53:44.163Z,100298.77
2018-08-08T14:56:11.626Z,100311.80
2018-08-08T14:58:38.897Z,100314.38
2018-08-08T15:01:06.258Z,100314.73
2018-08-08T15:03:33.655Z,100311.05
2018-08-08T15:06:01.101Z,100309.16
2018-08-08T15:08:28.414Z,100318.84
2018-08-08T15:10:55.748Z,100307.06
2018-08-08T15:13:23.041Z,100304.58
2018-08-08T15:15:50.858Z,100309.58
2018-08-08T15:18:18.247Z,100298.65
2018-08-08T15:20:45.721Z,100309.20
2018-08-08T15:23:12.992Z,100295.49
2018-08-08T15:25:40.302Z,100296.89
2018-08-08T15:28:07.703Z,100295.89
2018-08-08T15:30:35.013Z,100290.69
2018-08-08T15:33:02.344Z,100303.73
2018-08-08T15:35:29.708Z,100297.75
2018-08-08T15:37:57.733Z,100301.28
2018-08-08T15:40:25.111Z,100290.95
2018-08-08T15:42:52.417Z,100295.46
2018-08-08T15:45:19.797Z,100292.55
2018-08-08T15:47:47.106Z,100293.28
2018-08-08T15:50:14.533Z,100301.09
2018-08-08T15:52:42.363Z,100299.81
2018-08-08T15:55:11.537Z,100304.05
2018-08-08T15:57:38.838Z,100301.01
2018-08-08T16:00:08.341Z,100299.02
2018-08-08T16:02:35.759Z,100303.56
2018-08-08T16:05:04.074Z,100297.17
2018-08-08T16:07:31.413Z,100303.35
2018-08-08T16:09:59.023Z,100302.81
2018-08-08T16:12:26.452Z,100304.32
2018-08-08T16:14:53.851Z,100303.05
2018-08-08T16:17:21.369Z,100307.40
2018-08-08T16:19:48.839Z,100308.96
2018-08-08T16:22:16.274Z,100307.72
2018-08-08T16:24:43.615Z,100312.98
2018-08-08T16:27:10.919Z,100312.02
2018-08-08T16:29:39.151Z,100311.14
2018-08-08T16:32:07.334Z,100316.60
2018-08-08T16:34:34.939Z,100323.31
2018-08-08T16:37:02.427Z,100319.72
2018-08-08T16:39:29.920Z,100317.67
2018-08-08T16:41:57.204Z,100325.08
2018-08-08T16:44:24.532Z,100319.13
2018-08-08T16:46:52.266Z,100323.81
2018-08-08T16:49:19.634Z,100319.32
2018-08-08T16:51:47.813Z,100320.81
2018-08-08T16:54:15.424Z,100321.89
2018-08-08T16:56:42.849Z,100320.65
2018-08-08T16:59:10.874Z,100325.73
2018-08-08T17:01:38.227Z,100333.05
2018-08-08T17:04:05.584Z,100328.03
2018-08-08T17:06:32.965Z,100339.38
2018-08-08T17:09:01.089Z,100334.83
2018-08-08T17:11:28.407Z,100331.69
2018-08-08T17:13:55.788Z,100326.54
2018-08-08T17:16:23.263Z,100324.23
2018-08-08T17:18:50.754Z,100324.67
2018-08-08T17:21:18.687Z,100335.48
2018-08-08T17:23:46.149Z,100333.11
2018-08-08T17:26:13.477Z,100336.02
2018-08-08T17:28:40.970Z,100338.80
2018-08-08T17:31:08.268Z,100344.02
2018-08-08T17:33:35.639Z,100347.38
2018-08-08T17:36:03.049Z,100344.41
2018-08-08T17:38:30.450Z,100348.28
2018-08-08T17:40:57.769Z,100354.86
2018-08-08T17:43:25.315Z,100357.29
2018-08-08T17:45:52.766Z,100358.95
2018-08-08T17:48:21.792Z,100357.29
2018-08-08T17:50:49.225Z,100360.84
2018-08-08T17:53:16.718Z,100365.73
2018-08-08T17:55:44.144Z,100370.23
2018-08-08T17:58:11.494Z,100369.59
2018-08-08T18:00:38.918Z,100374.55
2018-08-08T18:03:06.464Z,100372.07
2018-08-08T18:05:33.998Z,100373.45
2018-08-08T18:08:01.445Z,100374.13
2018-08-08T18:10:28.763Z,100375.36
2018-08-08T18:12:56.283Z,100382.01
2018-08-08T18:15:23.619Z,100386.90
2018-08-08T18:17:51.001Z,100387.75
2018-08-08T18:20:18.519Z,100406.36
2018-08-08T18:22:46.642Z,100410.37
2018-08-08T18:25:13.994Z,100413.59
2018-08-08T18:27:41.544Z,100413.12
2018-08-08T18:30:10.327Z,100418.52
2018-08-08T18:32:38.340Z,100420.88
2018-08-08T18:35:05.711Z,100427.28
2018-08-08T18:37:33.730Z,100422.54
2018-08-08T18:40:01.247Z,100431.67
2018-08-08T18:42:28.971Z,100439.77
2018-08-08T18:44:56.281Z,100440.78
2018-08-08T18:47:23.718Z,100452.89
2018-08-08T18:49:51.148Z,100461.86
2018-08-08T18:52:18.686Z,100473.20
2018-08-08T18:54:46.447Z,100458.34
2018-08-08T18:57:13.903Z,100464.70
2018-08-08T18:59:41.669Z,100470.86
2018-08-08T19:02:10.643Z,100475.31
2018-08-08T19:04:39.137Z,100476.27
2018-08-08T19:07:07.076Z,100482.25
2018-08-08T19:09:35.031Z,100487.63
2018-08-08T19:12:02.378Z,100494.95
2018-08-08T19:14:33.442Z,100494.00
2018-08-08T19:17:00.766Z,100502.38
2018-08-08T19:19:28.970Z,100502.61
2018-08-08T19:21:56.344Z,100515.33
2018-08-08T19:24:23.889Z,100520.56
2018-08-08T19:26:51.636Z,100532.14
2018-08-08T19:29:19.189Z,100534.08
2018-08-08T19:31:46.502Z,100538.89
2018-08-08T19:34:13.884Z,100533.78
2018-08-08T19:36:41.314Z,100544.44
2018-08-08T19:39:10.560Z,100547.27
2018-08-08T19:41:38.166Z,100550.23
2018-08-08T19:44:05.817Z,100563.58
2018-08-08T19:46:35.299Z,100558.75
2018-08-08T19:49:02.887Z,100564.14
2018-08-08T19:51:30.986Z,100566.28
2018-08-08T19:53:59.534Z,100572.00
2018-08-08T19:56:28.112Z,100576.00
2018-08-08T19:58:55.469Z,100573.59
2018-08-08T20:01:22.885Z,100581.48
2018-08-08T20:03:52.058Z,100576.56
2018-08-08T20:06:19.428Z,100589.86
2018-08-08T20:08:46.761Z,100587.50
2018-08-08T20:11:14.205Z,100585.37
2018-08-08T20:13:43.149Z,100591.05
2018-08-08T20:16:11.313Z,100600.34
2018-08-08T20:18:40.465Z,100596.55
2018-08-08T20:21:07.978Z,100593.34
2018-08-08T20:23:35.618Z,100602.17
2018-08-08T20:26:02.860Z,100604.89
2018-08-08T20:28:30.173Z,100618.84
2018-08-08T20:30:58.139Z,100620.78
2018-08-08T20:33:25.719Z,100625.38
2018-08-08T20:35:53.877Z,100623.17
2018-08-08T20:38:21.865Z,100627.81
2018-08-08T20:40:49.947Z,100619.59
2018-08-08T20:43:17.295Z,100624.43
2018-08-08T20:45:45.621Z,100618.91
2018-08-08T20:48:13.051Z,100622.42
2018-08-08T20:50:40.477Z,100622.08
2018-08-08T20:53:08.996Z,100625.70
2018-08-08T20:55:36.284Z,100629.84
2018-08-08T20:58:04.680Z,100634.78
2018-08-08T21:00:32.733Z,100631.19
2018-08-08T21:03:00.562Z,100632.05
2018-08-08T21:05:27.910Z,100637.28
2018-08-08T21:07:55.412Z,100638.20
2018-08-08T21:10:22.740Z,100642.59
2018-08-08T21:12:50.896Z,100650.73
2018-08-08T21:15:18.289Z,100641.31
2018-08-08T21:17:45.727Z,100648.66
2018-08-08T21:20:16.033Z,100651.22
2018-08-08T21:22:43.465Z,100651.66
2018-08-08T21:25:10.778Z,100649.20
2018-08-08T21:27:38.136Z,100649.52
2018-08-08T21:30:05.879Z,100648.98
2018-08-08T21:32:33.246Z,100644.23
2018-08-08T21:35:00.614Z,100650.26
2018-08-08T21:37:28.714Z,100649.05
2018-08-08T21:39:56.003Z,100652.58
2018-08-08T21:42:23.309Z,100659.60
2018-08-08T21:44:50.656Z,100652.02
2018-08-08T21:47:17.952Z,100651.23
2018-08-08T21:49:45.246Z,100660.14
2018-08-08T21:52:12.624Z,100668.07
2018-08-08T21:54:51.312Z,100671.64
2018-08-08T21:58:31.037Z,100670.59
2018-08-08T22:01:11.398Z,100673.15
2018-08-08T22:03:50.326Z,100675.33
2018-08-08T22:06:29.230Z,100676.32
2018-08-08T22:09:07.962Z,100679.70
2018-08-08T22:11:55.056Z,100684.65
2018-08-08T22:14:33.705Z,100686.29
2018-08-08T22:17:12.284Z,100694.95
2018-08-08T22:19:43.510Z,100695.56
2018-08-08T22:22:11.501Z,100701.50
2018-08-08T22:24:38.779Z,100705.17
2018-08-08T22:27:06.857Z,100708.77
2018-08-08T22:29:34.167Z,100705.08
2018-08-08T22:32:01.468Z,100713.18
2018-08-08T22:34:28.710Z,100714.48
2018-08-08T22:36:55.978Z,100708.03
2018-08-08T22:39:23.278Z,100705.98
2018-08-08T22:41:50.504Z,100713.72
2018-08-08T22:44:18.475Z,100716.83
2018-08-08T22:46:45.743Z,100719.45
2018-08-08T22:49:13.107Z,100719.66
2018-08-08T22:51:40.428Z,100713.22
2018-08-08T22:54:07.720Z,100714.96
2018-08-08T22:56:35.111Z,100721.98
2018-08-08T22:59:02.494Z,100719.29
2018-08-08T23:01:29.780Z,100721.89
2018-08-08T23:03:57.785Z,100723.88
2018-08-08T23:06:27.303Z,100720.10
2018-08-08T23:08:54.598Z,100730.12
2018-08-08T23:11:21.955Z,100732.34
2018-08-08T23:13:49.238Z,100727.34
2018-08-08T23:16:16.505Z,100731.48
2018-08-08T23:18:44.314Z,100726.76
2018-08-08T23:21:11.752Z,100731.67
2018-08-08T23:23:39.142Z,100722.28
2018-08-08T23:26:06.429Z,100725.45
2018-08-08T23:28:33.753Z,100721.94
2018-08-08T23:31:01.042Z,100722.30
2018-08-08T23:33:28.335Z,100722.06
2018-08-08T23:35:55.699Z,100725.61
2018-08-08T23:38:22.979Z,100727.42
2018-08-08T23:40:50.244Z,100728.77
2018-08-08T23:43:17.595Z,100728.80
2018-08-08T23:45:44.946Z,100727.10
2018-08-08T23:48:12.193Z,100722.13
2018-08-08T23:50:39.524Z,100739.06
2018-08-08T23:53:06.810Z,100737.70
2018-08-08T23:55:34.120Z,100737.06
2018-08-08T23:58:01.552Z,100742.30
